Impacts TAF Board INFO
FOR SITUATIONAL AWARENESS. NOT TO BE USED FOR FLIGHT PLANNING PURPOSES.
IDs:

KPIT - Pittsburgh Intl, PA, US

Issued at 0232 UTC 20 Feb 2018
Updated at 0343 UTC 20 Feb 2018
Potential Impact None Slight Moderate High
Time<<21/04Z 21/05Z 21/06Z 21/07Z 21/08Z 21/09Z 21/10Z 21/11Z 21/12Z 21/13Z 21/14Z 21/15Z 21/16Z
Type PRVL PRVL
VIS >6 >6
CIG -- --
Cover SCT SCT
FltCat VFR VFR
WX -- --
WDir 180 180
WSpd 8 8
WGst -- --

Raw TAF
KPIT 200232Z 2003/2106 19007KT P6SM SCT150 BKN250 WS020/22040KT
  FM201400 21010KT P6SM BKN090
  FM201700 22013G22KT P6SM SCT070
  FM210100 18008KT P6SM SCT250


METAR Board
Radar Display
Forecast Discussion

FOR SITUATIONAL AWARENESS. NOT TO BE USED FOR FLIGHT PLANNING PURPOSES.